Time;durP1;ratioP1;P1;durP2;ratioP2;P2;SDS_P1;SDS_P2;PMS_P1;PMS_P2;Temp;Humidity;BMP_temperature;BMP_pressure;BME280_temperature;BME280_humidity;BME280_pressure;Samples;Min_cycle;Max_cycle;Signal;HPM_P1;HPM_P2
2023/08/23 00:00:00;;;;;;;0.40;0.40;;;15.50;99.90;;;;;;4993897;28;20052;-71
2023/08/23 00:02:26;;;;;;;0.30;0.30;;;15.50;99.90;;;;;;4991462;28;20058;-71
2023/08/23 00:04:51;;;;;;;0.30;0.30;;;15.50;99.90;;;;;;4995035;28;20098;-71
2023/08/23 00:07:17;;;;;;;0.22;0.22;;;15.40;99.90;;;;;;4996278;28;20045;-71
2023/08/23 00:09:43;;;;;;;0.22;0.22;;;15.40;99.90;;;;;;5008658;28;20060;-71
2023/08/23 00:12:08;;;;;;;0.30;0.30;;;15.40;99.90;;;;;;5005283;28;20061;-70
2023/08/23 00:14:36;;;;;;;0.30;0.30;;;15.40;99.90;;;;;;4983311;28;20406;-70
2023/08/23 00:17:01;;;;;;;0.20;0.20;;;15.30;99.90;;;;;;4991160;28;20690;-73
2023/08/23 00:19:27;;;;;;;0.75;0.75;;;15.30;99.90;;;;;;4991250;28;20053;-70
2023/08/23 00:21:53;;;;;;;0.50;0.50;;;15.20;99.90;;;;;;5004767;28;20608;-70
2023/08/23 00:24:21;;;;;;;0.35;0.35;;;15.20;99.90;;;;;;4989110;28;20050;-70
2023/08/23 00:26:47;;;;;;;0.30;0.30;;;15.20;99.90;;;;;;4989223;28;20049;-70
2023/08/23 00:29:12;;;;;;;0.30;0.30;;;15.10;99.90;;;;;;5002954;28;20046;-70
2023/08/23 00:31:38;;;;;;;0.40;0.40;;;15.10;99.90;;;;;;5010936;28;20111;-70
2023/08/23 00:34:04;;;;;;;0.35;0.35;;;15.10;99.90;;;;;;4982333;28;20088;-71
2023/08/23 00:36:29;;;;;;;0.40;0.40;;;15.10;99.90;;;;;;4989909;28;21099;-71
2023/08/23 00:38:55;;;;;;;0.30;0.30;;;15.00;99.90;;;;;;4984474;28;20042;-71
2023/08/23 00:41:22;;;;;;;0.30;0.30;;;15.00;99.90;;;;;;4990439;28;20109;-71
2023/08/23 00:43:48;;;;;;;0.40;0.40;;;14.90;99.90;;;;;;4988189;28;20042;-70
2023/08/23 00:46:15;;;;;;;0.30;0.30;;;14.90;99.90;;;;;;4984822;28;20042;-71
2023/08/23 00:48:41;;;;;;;0.20;0.20;;;14.80;99.90;;;;;;4980048;28;20042;-70
2023/08/23 00:51:09;;;;;;;0.20;0.20;;;14.80;99.90;;;;;;4995693;28;20135;-71
2023/08/23 00:53:36;;;;;;;0.30;0.30;;;14.80;99.90;;;;;;4987832;28;20069;-73
2023/08/23 00:56:01;;;;;;;0.30;0.30;;;14.70;99.90;;;;;;5003235;28;20053;-71
2023/08/23 00:58:28;;;;;;;0.57;0.50;;;14.70;99.90;;;;;;5000508;28;20484;-71
2023/08/23 01:00:54;;;;;;;0.30;0.30;;;14.70;99.90;;;;;;4987008;28;20144;-71
2023/08/23 01:03:20;;;;;;;0.30;0.30;;;14.60;99.90;;;;;;4984008;28;20046;-70
2023/08/23 01:06:17;;;;;;;0.30;0.30;;;14.50;99.90;;;;;;4993377;28;20095;-70
2023/08/23 01:09:01;;;;;;;0.50;0.50;;;14.40;99.90;;;;;;4990467;28;20054;-71
2023/08/23 01:11:43;;;;;;;0.30;0.30;;;14.30;99.90;;;;;;4990892;28;20072;-71
2023/08/23 01:14:19;;;;;;;0.25;0.25;;;14.30;99.90;;;;;;4988124;28;20038;-70
2023/08/23 01:16:48;;;;;;;0.77;0.40;;;14.30;99.90;;;;;;4980142;28;20057;-70
2023/08/23 01:19:41;;;;;;;0.20;0.20;;;14.30;99.90;;;;;;4991280;28;20057;-71
2023/08/23 01:22:09;;;;;;;0.40;0.40;;;14.20;99.90;;;;;;4992003;28;20050;-71
2023/08/23 01:24:35;;;;;;;0.55;0.55;;;14.10;99.90;;;;;;4988286;28;20064;-70
2023/08/23 01:27:01;;;;;;;0.20;0.20;;;14.10;99.90;;;;;;4985399;28;20034;-70
2023/08/23 01:29:27;;;;;;;0.20;0.20;;;14.00;99.90;;;;;;4982796;28;20132;-71
2023/08/23 01:32:11;;;;;;;0.25;0.25;;;14.00;99.90;;;;;;4991163;28;20053;-71
2023/08/23 01:34:42;;;;;;;0.30;0.30;;;14.00;99.90;;;;;;4990001;28;20467;-71
2023/08/23 01:37:10;;;;;;;0.30;0.30;;;14.00;99.90;;;;;;4986835;28;20140;-71
2023/08/23 01:39:37;;;;;;;0.30;0.30;;;14.00;99.90;;;;;;4975762;28;20054;-73
2023/08/23 01:42:03;;;;;;;0.30;0.30;;;14.00;99.90;;;;;;4987757;28;20049;-70
2023/08/23 01:44:29;;;;;;;0.38;0.38;;;14.00;99.90;;;;;;5006311;28;20042;-70
2023/08/23 01:46:54;;;;;;;0.40;0.40;;;14.00;99.90;;;;;;4985955;28;20054;-70
2023/08/23 01:49:20;;;;;;;0.30;0.30;;;14.00;99.90;;;;;;4978380;28;20049;-71
2023/08/23 01:51:45;;;;;;;0.30;0.30;;;14.00;99.90;;;;;;5004080;28;20152;-71
2023/08/23 01:54:11;;;;;;;0.93;0.52;;;13.90;99.90;;;;;;4997080;28;20134;-70
2023/08/23 01:56:37;;;;;;;0.50;0.50;;;13.90;99.90;;;;;;4991373;28;20403;-71
2023/08/23 01:59:03;;;;;;;1.08;0.85;;;13.70;99.90;;;;;;5006760;28;20049;-70
2023/08/23 02:01:28;;;;;;;0.30;0.30;;;13.70;99.90;;;;;;4989260;28;20053;-71
2023/08/23 02:03:54;;;;;;;0.30;0.30;;;13.60;99.90;;;;;;4985110;28;20057;-70
2023/08/23 02:06:20;;;;;;;0.30;0.30;;;13.70;99.90;;;;;;4994847;28;20049;-70
2023/08/23 02:08:45;;;;;;;0.30;0.30;;;13.70;99.90;;;;;;4988506;28;20845;-71
2023/08/23 02:11:11;;;;;;;0.25;0.25;;;13.70;99.90;;;;;;4981135;28;20040;-70
2023/08/23 02:13:37;;;;;;;0.40;0.40;;;13.70;99.90;;;;;;4979438;28;20078;-70
2023/08/23 02:16:02;;;;;;;0.20;0.20;;;13.70;99.90;;;;;;5004009;28;20077;-71
2023/08/23 02:18:28;;;;;;;0.30;0.30;;;13.70;99.90;;;;;;4980020;28;20049;-70
2023/08/23 02:20:57;;;;;;;0.30;0.30;;;13.70;99.90;;;;;;4996678;28;20042;-70
2023/08/23 02:23:22;;;;;;;0.30;0.30;;;13.60;99.90;;;;;;4986896;28;20050;-70
2023/08/23 02:25:48;;;;;;;0.95;0.95;;;13.60;99.90;;;;;;5002906;28;20041;-70
2023/08/23 02:28:14;;;;;;;0.30;0.30;;;13.60;99.90;;;;;;4985051;28;20046;-70
2023/08/23 02:30:40;;;;;;;0.40;0.40;;;13.70;99.90;;;;;;4982367;28;20057;-70
2023/08/23 02:33:06;;;;;;;0.35;0.35;;;13.70;99.90;;;;;;4974619;28;20054;-71
2023/08/23 02:35:31;;;;;;;0.40;0.40;;;13.60;99.90;;;;;;4997165;28;20140;-70
2023/08/23 02:37:57;;;;;;;0.30;0.30;;;13.70;99.90;;;;;;4990720;28;20049;-70
2023/08/23 02:40:24;;;;;;;0.30;0.30;;;13.70;99.90;;;;;;5001953;28;20045;-71
2023/08/23 02:42:49;;;;;;;0.20;0.20;;;13.80;99.90;;;;;;5002366;28;20483;-70
2023/08/23 02:45:15;;;;;;;0.30;0.30;;;13.80;99.90;;;;;;4996055;28;20515;-70
2023/08/23 02:47:41;;;;;;;0.30;0.30;;;13.80;99.90;;;;;;4986851;28;20084;-70
2023/08/23 02:50:07;;;;;;;0.30;0.30;;;13.90;99.90;;;;;;4994563;28;20049;-73
2023/08/23 02:52:32;;;;;;;0.30;0.30;;;13.80;99.90;;;;;;5004005;28;20069;-71
2023/08/23 02:54:58;;;;;;;0.50;0.50;;;13.80;99.90;;;;;;4992171;28;20056;-70
2023/08/23 02:57:24;;;;;;;0.40;0.40;;;13.80;99.90;;;;;;4988562;28;20105;-70
2023/08/23 02:59:49;;;;;;;0.38;0.38;;;13.80;99.90;;;;;;4997568;28;20092;-70
2023/08/23 03:02:15;;;;;;;0.30;0.30;;;13.90;99.90;;;;;;4989298;28;20064;-70
2023/08/23 03:04:40;;;;;;;0.40;0.40;;;13.90;99.90;;;;;;5006159;28;20713;-70
2023/08/23 03:07:06;;;;;;;0.30;0.30;;;13.90;99.90;;;;;;4987595;28;20125;-71
2023/08/23 03:09:31;;;;;;;0.38;0.38;;;14.00;99.90;;;;;;4981176;28;20057;-71
2023/08/23 03:11:57;;;;;;;0.30;0.30;;;14.00;99.90;;;;;;4985536;28;20056;-70
2023/08/23 03:14:23;;;;;;;0.35;0.35;;;14.00;99.90;;;;;;4985079;28;20072;-71
2023/08/23 03:16:48;;;;;;;0.60;0.60;;;14.00;99.90;;;;;;5000864;28;20115;-71
2023/08/23 03:19:14;;;;;;;0.47;0.47;;;14.00;99.90;;;;;;4988411;28;20049;-70
2023/08/23 03:21:40;;;;;;;0.30;0.30;;;14.00;99.90;;;;;;4985212;28;20042;-70
2023/08/23 03:24:05;;;;;;;0.40;0.40;;;14.00;99.90;;;;;;5000959;28;20107;-70
2023/08/23 03:26:31;;;;;;;0.40;0.40;;;14.10;99.90;;;;;;4992643;28;20057;-71
2023/08/23 03:28:56;;;;;;;0.32;0.32;;;14.10;99.90;;;;;;4998489;28;20058;-71
2023/08/23 03:31:22;;;;;;;0.38;0.38;;;14.10;99.90;;;;;;4982835;28;20074;-71
2023/08/23 03:33:48;;;;;;;0.40;0.40;;;14.10;99.90;;;;;;4989451;28;20092;-71
2023/08/23 03:36:13;;;;;;;0.40;0.40;;;14.10;99.90;;;;;;4994683;28;20077;-71
2023/08/23 03:38:39;;;;;;;0.60;0.60;;;14.10;99.90;;;;;;5003075;28;20054;-71
2023/08/23 03:41:12;;;;;;;0.50;0.50;;;14.00;99.90;;;;;;4986248;28;20073;-71
2023/08/23 03:43:38;;;;;;;0.32;0.32;;;14.00;99.90;;;;;;4981334;28;20054;-71
2023/08/23 03:46:03;;;;;;;0.20;0.20;;;14.10;99.90;;;;;;5001129;28;20841;-70
2023/08/23 03:48:29;;;;;;;0.50;0.50;;;14.10;99.90;;;;;;5001007;28;20073;-71
2023/08/23 03:50:58;;;;;;;0.40;0.40;;;14.10;99.90;;;;;;5006081;28;20049;-72
2023/08/23 03:53:24;;;;;;;0.20;0.20;;;14.10;99.90;;;;;;4988105;28;20050;-71
2023/08/23 03:55:54;;;;;;;0.30;0.30;;;14.10;99.90;;;;;;4990201;28;20147;-71
2023/08/23 03:58:20;;;;;;;0.20;0.20;;;14.20;99.90;;;;;;4990133;28;20129;-71
2023/08/23 04:00:52;;;;;;;0.30;0.30;;;14.20;99.90;;;;;;5005162;28;20042;-71
2023/08/23 04:03:18;;;;;;;0.30;0.30;;;14.20;99.90;;;;;;5008465;28;20037;-71
2023/08/23 04:05:45;;;;;;;0.30;0.30;;;14.30;99.90;;;;;;4990843;28;20679;-71
2023/08/23 04:08:11;;;;;;;0.30;0.30;;;14.30;99.90;;;;;;4991467;28;20106;-71
2023/08/23 04:10:37;;;;;;;0.40;0.40;;;14.30;99.90;;;;;;4996184;28;20129;-71
2023/08/23 04:13:03;;;;;;;0.40;0.40;;;14.30;99.90;;;;;;4990845;28;20129;-71
2023/08/23 04:15:28;;;;;;;0.40;0.40;;;14.40;99.90;;;;;;4991113;28;20109;-71
2023/08/23 04:17:55;;;;;;;0.40;0.40;;;14.40;99.90;;;;;;4988766;28;20386;-71
2023/08/23 04:20:21;;;;;;;0.50;0.40;;;14.50;99.90;;;;;;4992213;28;20569;-71
2023/08/23 04:22:46;;;;;;;0.30;0.30;;;14.50;99.90;;;;;;4989297;28;20081;-71
2023/08/23 04:25:12;;;;;;;0.30;0.30;;;14.50;99.90;;;;;;4990025;28;20056;-71
2023/08/23 04:27:38;;;;;;;0.95;0.52;;;14.60;99.90;;;;;;4980930;28;20050;-71
2023/08/23 04:30:06;;;;;;;0.38;0.38;;;14.60;99.90;;;;;;4988221;28;20049;-71
2023/08/23 04:32:32;;;;;;;0.30;0.30;;;14.60;99.90;;;;;;4983272;28;20828;-72
2023/08/23 04:34:58;;;;;;;0.38;0.38;;;14.60;99.90;;;;;;4994211;28;20041;-71
2023/08/23 04:37:23;;;;;;;0.30;0.30;;;14.60;99.90;;;;;;4990297;28;20410;-71
2023/08/23 04:39:49;;;;;;;0.40;0.40;;;14.60;99.90;;;;;;4990765;28;20037;-70
2023/08/23 04:42:15;;;;;;;0.52;0.52;;;14.60;99.90;;;;;;5008032;28;20552;-71
2023/08/23 04:44:40;;;;;;;0.30;0.30;;;14.60;99.90;;;;;;5005048;28;20458;-71
2023/08/23 04:47:06;;;;;;;0.32;0.32;;;14.60;99.90;;;;;;4987425;28;20495;-71
2023/08/23 04:49:32;;;;;;;0.40;0.40;;;14.70;99.90;;;;;;4997691;28;20141;-72
2023/08/23 04:51:58;;;;;;;0.38;0.38;;;14.70;99.90;;;;;;4990230;28;20132;-72
2023/08/23 04:54:23;;;;;;;0.30;0.30;;;14.80;99.90;;;;;;4971878;28;20086;-72
2023/08/23 04:56:49;;;;;;;0.32;0.32;;;14.70;99.90;;;;;;4986609;28;20047;-71
2023/08/23 04:59:15;;;;;;;0.40;0.40;;;14.70;99.90;;;;;;4969568;28;20049;-72
2023/08/23 05:01:42;;;;;;;0.50;0.50;;;14.70;99.90;;;;;;4972216;28;20761;-72
2023/08/23 05:04:08;;;;;;;0.40;0.40;;;14.80;99.90;;;;;;4972350;28;20041;-72
2023/08/23 05:06:34;;;;;;;0.28;0.28;;;14.80;99.90;;;;;;4968111;28;20809;-72
2023/08/23 05:09:00;;;;;;;0.30;0.30;;;14.90;99.90;;;;;;4965444;28;20049;-72
2023/08/23 05:11:26;;;;;;;0.30;0.30;;;15.00;99.90;;;;;;4967327;28;20475;-72
2023/08/23 05:13:52;;;;;;;0.40;0.40;;;15.10;99.90;;;;;;4973303;28;20053;-72
2023/08/23 05:16:17;;;;;;;0.43;0.43;;;15.10;99.90;;;;;;4974553;28;20038;-72
2023/08/23 05:18:43;;;;;;;0.50;0.50;;;15.20;99.90;;;;;;4969895;28;20527;-72
2023/08/23 05:21:09;;;;;;;0.75;0.60;;;15.30;99.90;;;;;;4971205;28;20104;-72
2023/08/23 05:23:35;;;;;;;0.30;0.30;;;15.30;99.90;;;;;;4969774;28;20513;-72
2023/08/23 05:26:02;;;;;;;0.30;0.30;;;15.30;99.90;;;;;;4977927;28;20056;-72
2023/08/23 05:28:28;;;;;;;0.20;0.20;;;15.40;99.90;;;;;;4970414;28;20054;-73
2023/08/23 05:30:54;;;;;;;0.38;0.38;;;15.40;99.90;;;;;;4974404;28;20057;-72
2023/08/23 05:33:20;;;;;;;0.50;0.50;;;15.50;99.90;;;;;;4971860;28;20056;-73
2023/08/23 05:35:46;;;;;;;0.40;0.40;;;15.50;99.90;;;;;;4972757;28;20136;-73
2023/08/23 05:38:12;;;;;;;0.32;0.32;;;15.50;99.90;;;;;;4971287;28;20403;-73
2023/08/23 05:40:41;;;;;;;0.50;0.50;;;15.50;99.90;;;;;;4970214;28;20046;-73
2023/08/23 05:43:07;;;;;;;0.30;0.30;;;15.60;99.90;;;;;;4968181;28;20173;-73
2023/08/23 05:45:33;;;;;;;0.30;0.30;;;15.60;99.90;;;;;;4966918;28;20050;-73
2023/08/23 05:48:00;;;;;;;0.30;0.30;;;15.60;99.90;;;;;;4971794;28;20060;-73
2023/08/23 05:50:26;;;;;;;0.47;0.47;;;15.70;99.90;;;;;;4975401;28;20418;-73
2023/08/23 05:52:52;;;;;;;0.30;0.30;;;15.80;99.90;;;;;;4979965;28;20055;-72
2023/08/23 05:55:17;;;;;;;0.45;0.45;;;15.80;99.90;;;;;;4964414;28;20058;-73
2023/08/23 05:57:43;;;;;;;0.30;0.30;;;15.90;99.90;;;;;;4963098;28;20522;-72
2023/08/23 06:00:10;;;;;;;0.30;0.30;;;16.00;99.90;;;;;;4964981;28;20129;-73
2023/08/23 06:02:35;;;;;;;0.40;0.40;;;16.00;99.90;;;;;;4961857;28;20526;-73
2023/08/23 06:05:03;;;;;;;0.30;0.30;;;16.00;99.90;;;;;;4968786;28;20053;-73
2023/08/23 06:07:28;;;;;;;0.38;0.38;;;16.00;99.90;;;;;;4969953;28;20061;-73
2023/08/23 06:09:54;;;;;;;0.30;0.30;;;16.00;99.90;;;;;;4969810;28;20431;-72
2023/08/23 06:12:20;;;;;;;0.30;0.30;;;16.00;99.90;;;;;;4953264;28;20407;-73
2023/08/23 06:14:47;;;;;;;0.40;0.40;;;16.00;99.90;;;;;;4970922;28;20136;-72
2023/08/23 06:17:12;;;;;;;0.85;0.68;;;16.00;99.90;;;;;;4970412;28;20093;-73
2023/08/23 06:19:38;;;;;;;0.30;0.30;;;16.00;99.90;;;;;;4985751;28;20686;-73
2023/08/23 06:22:05;;;;;;;0.35;0.35;;;16.00;99.90;;;;;;4968603;28;20120;-73
2023/08/23 06:24:30;;;;;;;0.30;0.30;;;16.00;99.90;;;;;;4972938;28;20479;-73
2023/08/23 06:26:56;;;;;;;0.50;0.50;;;16.10;99.90;;;;;;4968900;28;20045;-72
2023/08/23 06:29:21;;;;;;;0.40;0.40;;;16.10;99.90;;;;;;4969714;28;20101;-72
2023/08/23 06:31:47;;;;;;;0.40;0.40;;;16.20;99.90;;;;;;4967392;28;20039;-72
2023/08/23 06:34:13;;;;;;;0.30;0.30;;;16.30;99.90;;;;;;4969866;28;20141;-73
2023/08/23 06:36:39;;;;;;;0.55;0.55;;;16.40;99.90;;;;;;4967302;28;20408;-73
2023/08/23 06:39:05;;;;;;;0.30;0.30;;;16.50;99.90;;;;;;4970310;28;20553;-73
2023/08/23 06:41:31;;;;;;;0.40;0.40;;;16.60;99.90;;;;;;4962638;28;20074;-73
2023/08/23 06:44:01;;;;;;;1.35;1.25;;;16.70;99.90;;;;;;4968818;28;20054;-73
2023/08/23 06:46:27;;;;;;;0.40;0.40;;;16.90;99.90;;;;;;4964441;28;20164;-72
2023/08/23 06:48:54;;;;;;;0.30;0.30;;;17.00;99.90;;;;;;4958081;28;20062;-74
2023/08/23 06:51:20;;;;;;;0.30;0.30;;;17.10;99.90;;;;;;4977752;28;20086;-73
2023/08/23 06:53:47;;;;;;;0.95;0.95;;;17.20;99.90;;;;;;4967116;28;20490;-73
2023/08/23 06:56:13;;;;;;;0.50;0.50;;;17.30;99.90;;;;;;4976153;28;20502;-73
2023/08/23 06:58:39;;;;;;;0.63;0.63;;;17.40;99.90;;;;;;4980706;28;20051;-75
2023/08/23 07:01:14;;;;;;;0.40;0.40;;;17.50;99.90;;;;;;4963536;28;20687;-73
2023/08/23 07:03:41;;;;;;;0.40;0.40;;;17.70;99.90;;;;;;4977856;28;20535;-73
2023/08/23 07:06:07;;;;;;;0.20;0.20;;;17.90;99.90;;;;;;4959691;28;20050;-72
2023/08/23 07:08:32;;;;;;;0.70;0.70;;;18.10;99.90;;;;;;4983309;28;20054;-73
2023/08/23 07:10:58;;;;;;;0.35;0.35;;;18.30;99.90;;;;;;4986627;28;20104;-73
2023/08/23 07:13:24;;;;;;;0.70;0.70;;;18.40;99.90;;;;;;4971007;28;20043;-73
2023/08/23 07:15:49;;;;;;;0.32;0.32;;;18.60;99.90;;;;;;4987427;28;20061;-73
2023/08/23 07:18:15;;;;;;;0.60;0.60;;;18.80;99.90;;;;;;4972712;28;20043;-72
2023/08/23 07:20:41;;;;;;;0.50;0.50;;;19.10;99.90;;;;;;4964229;28;20058;-72
2023/08/23 07:23:07;;;;;;;0.30;0.30;;;19.30;99.90;;;;;;4964685;28;20046;-72
2023/08/23 07:25:32;;;;;;;0.43;0.43;;;19.50;99.90;;;;;;4984855;28;20066;-73
2023/08/23 07:27:58;;;;;;;0.82;0.82;;;19.80;99.90;;;;;;4967079;28;20535;-72
2023/08/23 07:30:24;;;;;;;0.80;0.80;;;20.00;99.90;;;;;;4972859;28;20042;-72
2023/08/23 07:32:50;;;;;;;0.52;0.52;;;20.10;99.90;;;;;;4968287;28;20055;-73
2023/08/23 07:35:16;;;;;;;0.47;0.47;;;20.20;99.90;;;;;;4972081;28;20135;-72
2023/08/23 07:37:41;;;;;;;0.93;0.70;;;20.20;99.90;;;;;;4968962;28;20082;-73
2023/08/23 07:40:09;;;;;;;0.52;0.35;;;20.40;99.90;;;;;;4966018;28;20031;-73
2023/08/23 07:42:35;;;;;;;1.42;1.15;;;20.50;99.90;;;;;;4965899;28;20046;-73
2023/08/23 07:45:00;;;;;;;0.60;0.60;;;20.60;99.90;;;;;;4982563;28;20086;-73
2023/08/23 07:47:26;;;;;;;0.40;0.40;;;20.90;99.90;;;;;;4950939;28;20042;-73
2023/08/23 07:49:52;;;;;;;0.30;0.30;;;21.20;99.90;;;;;;4975385;28;20060;-73
2023/08/23 07:52:17;;;;;;;0.55;0.55;;;21.40;99.90;;;;;;4984147;28;20475;-73
2023/08/23 07:54:43;;;;;;;0.30;0.30;;;21.50;99.90;;;;;;4987944;28;20054;-73
2023/08/23 07:57:09;;;;;;;0.45;0.45;;;21.70;99.90;;;;;;4990843;28;20052;-73
2023/08/23 07:59:35;;;;;;;0.77;0.77;;;21.80;99.90;;;;;;4986147;28;20089;-73
2023/08/23 08:02:00;;;;;;;0.82;0.32;;;22.00;99.90;;;;;;4992159;28;20132;-73
2023/08/23 08:04:27;;;;;;;0.55;0.55;;;22.20;99.90;;;;;;4986158;28;20054;-73
2023/08/23 08:06:53;;;;;;;0.57;0.57;;;22.40;99.90;;;;;;4989056;28;20567;-73
2023/08/23 08:09:18;;;;;;;0.30;0.30;;;22.50;99.90;;;;;;4995194;28;20133;-73
2023/08/23 08:11:44;;;;;;;0.28;0.28;;;22.70;99.90;;;;;;4991221;28;20077;-72
2023/08/23 08:14:10;;;;;;;0.52;0.40;;;22.90;99.90;;;;;;4985014;28;20053;-73
2023/08/23 08:16:35;;;;;;;0.20;0.20;;;23.10;99.90;;;;;;4982910;28;20038;-73
2023/08/23 08:19:01;;;;;;;0.30;0.30;;;23.30;99.90;;;;;;4999823;28;20050;-73
2023/08/23 08:21:27;;;;;;;0.50;0.50;;;23.50;99.90;;;;;;5003578;28;20041;-72
2023/08/23 08:23:53;;;;;;;0.30;0.30;;;23.80;99.90;;;;;;4988504;28;20472;-73
2023/08/23 08:26:20;;;;;;;0.30;0.30;;;24.00;99.90;;;;;;4991839;28;20053;-73
2023/08/23 08:28:45;;;;;;;0.22;0.22;;;24.30;99.90;;;;;;4988060;28;20054;-73
2023/08/23 08:31:11;;;;;;;0.30;0.30;;;24.50;99.90;;;;;;4997749;28;20207;-70
2023/08/23 08:33:41;;;;;;;0.35;0.35;;;24.70;99.90;;;;;;4984421;28;20102;-71
2023/08/23 08:36:07;;;;;;;0.30;0.30;;;24.80;99.90;;;;;;5006611;28;20043;-71
2023/08/23 08:38:33;;;;;;;0.50;0.50;;;25.10;99.90;;;;;;4980938;28;20058;-71
2023/08/23 08:40:59;;;;;;;0.30;0.30;;;25.20;99.90;;;;;;4989711;28;20133;-71
2023/08/23 08:43:25;;;;;;;0.25;0.25;;;25.40;99.90;;;;;;4991492;28;20080;-71
2023/08/23 08:45:51;;;;;;;0.20;0.20;;;25.50;99.90;;;;;;4986581;28;20050;-71
2023/08/23 08:48:17;;;;;;;0.35;0.35;;;25.70;99.90;;;;;;4986985;28;20042;-71
2023/08/23 08:50:43;;;;;;;0.30;0.30;;;25.80;99.90;;;;;;4987346;28;20054;-71
2023/08/23 08:53:15;;;;;;;0.40;0.40;;;25.90;99.90;;;;;;4988311;28;20052;-71
2023/08/23 08:55:44;;;;;;;0.30;0.30;;;26.00;99.90;;;;;;4987382;28;20046;-70
2023/08/23 08:58:14;;;;;;;0.40;0.40;;;26.10;99.90;;;;;;4990678;28;20049;-71
2023/08/23 09:00:41;;;;;;;0.30;0.30;;;26.20;99.90;;;;;;5012968;28;20197;-70
2023/08/23 09:03:07;;;;;;;0.30;0.30;;;26.30;99.90;;;;;;4986000;28;20104;-70
2023/08/23 09:05:33;;;;;;;0.30;0.30;;;26.40;99.90;;;;;;4985478;28;20062;-71
2023/08/23 09:07:58;;;;;;;0.30;0.30;;;26.50;99.90;;;;;;4984619;28;20038;-71
2023/08/23 09:10:25;;;;;;;0.40;0.40;;;26.70;99.90;;;;;;4995461;28;20136;-71
2023/08/23 09:12:50;;;;;;;0.60;0.60;;;26.80;99.90;;;;;;4991518;28;20069;-70
2023/08/23 09:15:23;;;;;;;0.30;0.30;;;27.00;99.90;;;;;;4990384;28;20046;-71
2023/08/23 09:17:52;;;;;;;0.30;0.30;;;27.00;99.90;;;;;;4987105;28;20050;-71
2023/08/23 09:20:20;;;;;;;0.30;0.30;;;27.20;99.90;;;;;;4983343;28;20049;-71
2023/08/23 09:22:51;;;;;;;0.40;0.40;;;27.50;99.90;;;;;;4990221;28;20045;-71
2023/08/23 09:25:16;;;;;;;0.30;0.30;;;27.60;99.90;;;;;;4981572;28;20056;-71
2023/08/23 09:27:43;;;;;;;0.30;0.30;;;27.70;99.90;;;;;;4988962;28;20659;-71
2023/08/23 09:30:09;;;;;;;0.30;0.30;;;27.80;99.90;;;;;;4984376;28;20056;-71
2023/08/23 09:32:35;;;;;;;0.50;0.50;;;27.80;99.90;;;;;;4971016;28;20546;-70
2023/08/23 09:35:15;;;;;;;0.60;0.50;;;27.90;99.90;;;;;;4969391;28;20057;-71
2023/08/23 09:37:42;;;;;;;0.30;0.30;;;27.90;99.90;;;;;;4984274;28;20531;-71
2023/08/23 09:40:26;;;;;;;0.30;0.25;;;27.90;99.90;;;;;;4993803;28;20634;-71
2023/08/23 09:42:53;;;;;;;0.40;0.40;;;27.90;99.90;;;;;;4984050;28;20046;-71
2023/08/23 09:45:23;;;;;;;0.40;0.40;;;28.00;99.90;;;;;;5001315;28;20073;-71
2023/08/23 09:47:58;;;;;;;0.40;0.40;;;28.20;99.90;;;;;;4970307;28;20046;-71
2023/08/23 09:50:25;;;;;;;0.35;0.35;;;28.40;99.90;;;;;;5001274;28;20054;-71
2023/08/23 09:53:06;;;;;;;0.28;0.28;;;28.60;99.90;;;;;;4988464;28;20771;-71
2023/08/23 09:55:34;;;;;;;0.68;0.68;;;28.70;99.90;;;;;;4983856;28;20853;-71
2023/08/23 09:58:01;;;;;;;0.30;0.30;;;28.60;99.90;;;;;;4988305;28;20482;-70
2023/08/23 10:00:27;;;;;;;0.30;0.30;;;28.60;99.90;;;;;;4979466;28;20042;-71
2023/08/23 10:02:53;;;;;;;0.30;0.30;;;28.60;99.90;;;;;;4985617;28;20045;-71
2023/08/23 10:05:20;;;;;;;0.30;0.30;;;28.70;99.90;;;;;;4983699;28;20132;-73
2023/08/23 10:07:46;;;;;;;0.37;0.37;;;28.90;99.90;;;;;;4989872;28;20042;-72
2023/08/23 10:10:11;;;;;;;0.50;0.50;;;29.10;99.90;;;;;;5005840;28;20582;-73
2023/08/23 10:12:47;;;;;;;0.40;0.40;;;29.20;99.90;;;;;;5005791;28;20137;-72
2023/08/23 10:15:15;;;;;;;0.40;0.40;;;29.30;99.90;;;;;;4985941;28;20057;-72
2023/08/23 10:17:44;;;;;;;0.50;0.50;;;29.40;99.90;;;;;;4985681;28;20450;-72
2023/08/23 10:20:10;;;;;;;0.30;0.30;;;29.40;99.90;;;;;;4985138;28;20664;-72
2023/08/23 10:22:37;;;;;;;0.32;0.32;;;29.40;97.30;;;;;;4983984;28;20077;-72
2023/08/23 10:25:23;;;;;;;0.40;0.40;;;29.60;99.90;;;;;;4988109;28;20140;-71
2023/08/23 10:27:52;;;;;;;1.02;1.00;;;29.60;98.50;;;;;;4969529;28;20057;-72
2023/08/23 10:30:28;;;;;;;0.43;0.43;;;29.50;97.90;;;;;;4987364;28;20619;-72
2023/08/23 10:33:06;;;;;;;0.38;0.38;;;29.30;99.50;;;;;;5002301;28;20050;-72
2023/08/23 10:35:32;;;;;;;0.30;0.30;;;29.40;99.40;;;;;;4984312;28;20053;-72
2023/08/23 10:37:59;;;;;;;0.30;0.30;;;29.60;99.90;;;;;;4989207;28;20398;-72
2023/08/23 10:40:29;;;;;;;0.38;0.38;;;29.70;98.50;;;;;;5000360;28;20049;-71
2023/08/23 10:42:55;;;;;;;0.30;0.30;;;29.70;98.50;;;;;;4982469;28;20046;-71
2023/08/23 10:45:21;;;;;;;0.40;0.40;;;29.60;96.90;;;;;;4992225;28;20061;-72
2023/08/23 10:47:50;;;;;;;0.50;0.50;;;29.70;97.30;;;;;;5009080;28;20100;-73
2023/08/23 10:50:17;;;;;;;0.50;0.50;;;29.70;94.00;;;;;;4990900;28;20556;-71
2023/08/23 10:52:42;;;;;;;0.35;0.35;;;29.60;96.20;;;;;;5006923;28;20081;-72
2023/08/23 10:55:09;;;;;;;0.73;0.73;;;29.50;95.50;;;;;;4984374;28;20042;-72
2023/08/23 10:57:35;;;;;;;0.50;0.50;;;29.50;95.90;;;;;;4987186;28;20053;-72
2023/08/23 11:00:01;;;;;;;0.30;0.30;;;29.60;97.10;;;;;;4991935;28;20309;-72
2023/08/23 11:02:27;;;;;;;0.30;0.30;;;29.90;95.60;;;;;;5008741;28;20071;-72
2023/08/23 11:04:53;;;;;;;0.30;0.30;;;30.00;96.80;;;;;;4987795;28;20054;-72
2023/08/23 11:07:24;;;;;;;0.40;0.40;;;29.90;94.60;;;;;;4994039;28;20502;-73
2023/08/23 11:09:49;;;;;;;0.30;0.30;;;30.00;95.50;;;;;;5002057;28;20136;-72
2023/08/23 11:12:15;;;;;;;0.30;0.30;;;30.00;96.60;;;;;;4995117;28;20052;-72
2023/08/23 11:14:40;;;;;;;0.43;0.43;;;29.90;95.30;;;;;;4984912;28;20042;-72
2023/08/23 11:17:07;;;;;;;0.40;0.40;;;29.70;95.70;;;;;;5005268;28;20096;-72
2023/08/23 11:19:33;;;;;;;0.50;0.50;;;29.50;95.10;;;;;;4988919;28;20760;-72
2023/08/23 11:22:01;;;;;;;0.40;0.40;;;29.40;95.70;;;;;;4989346;28;20038;-72
2023/08/23 11:24:26;;;;;;;0.50;0.50;;;29.30;94.90;;;;;;4983842;28;20053;-72
2023/08/23 11:26:52;;;;;;;0.30;0.30;;;29.20;96.00;;;;;;4993748;28;20456;-72
2023/08/23 11:29:18;;;;;;;0.30;0.30;;;29.00;96.20;;;;;;4992054;28;20046;-72
2023/08/23 11:31:53;;;;;;;0.45;0.45;;;28.90;95.70;;;;;;4981883;28;20085;-72
2023/08/23 11:34:20;;;;;;;0.47;0.47;;;29.00;96.20;;;;;;5001244;28;20058;-71
2023/08/23 11:36:46;;;;;;;0.30;0.30;;;29.20;96.50;;;;;;4992665;28;20058;-71
2023/08/23 11:39:13;;;;;;;0.40;0.40;;;29.20;94.70;;;;;;4988281;28;20050;-71
2023/08/23 11:41:39;;;;;;;0.40;0.40;;;29.20;95.30;;;;;;4985743;28;20513;-71
2023/08/23 11:44:06;;;;;;;0.30;0.30;;;29.30;94.20;;;;;;5003137;28;20042;-71
2023/08/23 11:46:34;;;;;;;0.30;0.30;;;29.30;93.10;;;;;;4984607;28;20100;-72
2023/08/23 11:49:03;;;;;;;0.50;0.50;;;29.50;94.00;;;;;;4991401;28;20388;-72
2023/08/23 11:51:50;;;;;;;0.45;0.45;;;29.60;93.80;;;;;;4991142;28;20092;-72
2023/08/23 11:54:16;;;;;;;0.35;0.35;;;29.70;94.50;;;;;;4984455;28;20116;-72
2023/08/23 11:56:45;;;;;;;0.82;0.82;;;29.80;94.50;;;;;;4986317;28;20504;-72
2023/08/23 11:59:14;;;;;;;0.45;0.45;;;29.90;92.70;;;;;;4994767;28;20490;-71
2023/08/23 12:01:44;;;;;;;0.35;0.35;;;29.90;93.70;;;;;;4994602;28;20046;-72
2023/08/23 12:04:11;;;;;;;0.70;0.60;;;30.00;93.30;;;;;;4990487;28;20133;-72
2023/08/23 12:06:37;;;;;;;0.30;0.30;;;30.20;93.40;;;;;;5006788;28;20398;-72
2023/08/23 12:09:03;;;;;;;0.50;0.50;;;30.40;92.90;;;;;;5007207;28;20054;-72
2023/08/23 12:11:32;;;;;;;0.50;0.50;;;30.40;93.00;;;;;;4988654;28;20044;-72
2023/08/23 12:14:03;;;;;;;0.40;0.40;;;30.20;91.70;;;;;;5002596;28;20088;-72
2023/08/23 12:16:30;;;;;;;0.40;0.40;;;30.00;92.10;;;;;;5002992;28;20030;-72
2023/08/23 12:18:56;;;;;;;0.30;0.30;;;29.80;92.20;;;;;;4983105;28;20057;-72
2023/08/23 12:21:22;;;;;;;0.40;0.40;;;29.60;91.50;;;;;;5008729;28;20038;-72
2023/08/23 12:23:47;;;;;;;0.50;0.50;;;29.50;92.20;;;;;;5003504;28;20434;-72
2023/08/23 12:26:13;;;;;;;0.40;0.40;;;29.30;91.70;;;;;;5004708;28;20383;-72
2023/08/23 12:28:38;;;;;;;0.30;0.30;;;29.30;91.40;;;;;;5000737;28;20054;-72
2023/08/23 12:31:04;;;;;;;0.38;0.38;;;29.30;91.90;;;;;;4990741;28;20495;-72
2023/08/23 12:33:30;;;;;;;0.50;0.50;;;29.30;90.30;;;;;;4991135;28;20046;-72
2023/08/23 12:35:56;;;;;;;0.30;0.30;;;29.40;91.00;;;;;;5006541;28;20551;-72
2023/08/23 12:38:24;;;;;;;0.57;0.50;;;29.30;87.70;;;;;;4984748;28;20049;-72
2023/08/23 12:40:50;;;;;;;0.40;0.40;;;29.20;89.20;;;;;;5006621;28;20048;-72
2023/08/23 12:43:16;;;;;;;0.50;0.50;;;29.10;90.40;;;;;;4992520;28;20414;-72
2023/08/23 12:45:41;;;;;;;0.30;0.30;;;29.10;88.50;;;;;;5003397;28;20050;-72